sensor_id;sensor_type;location;lat;lon;timestamp;P1;durP1;ratioP1;P2;durP2;ratioP2
27367;SDS011;14839;48.106;11.618;2023-08-06T04:02:56;1.83;;;1.47;;
27367;SDS011;14839;48.106;11.618;2023-08-06T04:05:21;2.37;;;1.70;;
27367;SDS011;14839;48.106;11.618;2023-08-06T04:07:47;1.37;;;1.27;;
27367;SDS011;14839;48.106;11.618;2023-08-06T04:10:12;3.47;;;1.30;;
27367;SDS011;14839;48.106;11.618;2023-08-06T04:12:38;1.60;;;1.30;;
27367;SDS011;14839;48.106;11.618;2023-08-06T04:15:04;1.53;;;1.43;;
27367;SDS011;14839;48.106;11.618;2023-08-06T04:17:30;2.10;;;1.20;;
27367;SDS011;14839;48.106;11.618;2023-08-06T04:19:56;1.93;;;1.60;;
27367;SDS011;14839;48.106;11.618;2023-08-06T04:22:23;3.17;;;1.70;;
27367;SDS011;14839;48.106;11.618;2023-08-06T04:24:49;4.90;;;1.37;;
27367;SDS011;14839;48.106;11.618;2023-08-06T04:27:15;1.47;;;1.23;;
27367;SDS011;14839;48.106;11.618;2023-08-06T04:29:41;1.50;;;1.17;;
27367;SDS011;14839;48.106;11.618;2023-08-06T04:32:07;4.03;;;1.50;;
27367;SDS011;14839;48.106;11.618;2023-08-06T04:34:34;2.40;;;1.50;;
27367;SDS011;14839;48.106;11.618;2023-08-06T04:37:01;1.70;;;1.40;;
27367;SDS011;14839;48.106;11.618;2023-08-06T04:39:27;1.90;;;1.30;;
27367;SDS011;14839;48.106;11.618;2023-08-06T04:41:53;1.53;;;1.40;;
27367;SDS011;14839;48.106;11.618;2023-08-06T04:44:18;1.40;;;1.30;;
27367;SDS011;14839;48.106;11.618;2023-08-06T04:46:44;1.70;;;1.30;;
27367;SDS011;14839;48.106;11.618;2023-08-06T04:49:09;1.60;;;1.47;;
27367;SDS011;14839;48.106;11.618;2023-08-06T04:51:35;1.70;;;1.30;;
27367;SDS011;14839;48.106;11.618;2023-08-06T04:54:00;4.17;;;1.40;;
27367;SDS011;14839;48.106;11.618;2023-08-06T04:56:26;2.93;;;1.13;;
27367;SDS011;14839;48.106;11.618;2023-08-06T04:58:52;5.93;;;1.40;;
27367;SDS011;14839;48.106;11.618;2023-08-06T05:01:17;1.90;;;1.30;;
27367;SDS011;14839;48.106;11.618;2023-08-06T05:03:43;1.37;;;1.27;;
27367;SDS011;14839;48.106;11.618;2023-08-06T05:06:09;2.13;;;1.30;;
27367;SDS011;14839;48.106;11.618;2023-08-06T05:08:35;4.77;;;1.50;;
27367;SDS011;14839;48.106;11.618;2023-08-06T05:11:01;1.93;;;1.30;;
27367;SDS011;14839;48.106;11.618;2023-08-06T05:13:27;3.03;;;1.40;;
27367;SDS011;14839;48.106;11.618;2023-08-06T05:15:55;1.67;;;1.37;;
27367;SDS011;14839;48.106;11.618;2023-08-06T05:18:21;1.73;;;1.20;;
27367;SDS011;14839;48.106;11.618;2023-08-06T05:20:47;2.70;;;1.20;;
27367;SDS011;14839;48.106;11.618;2023-08-06T05:23:13;1.50;;;1.27;;
27367;SDS011;14839;48.106;11.618;2023-08-06T05:25:38;2.90;;;1.27;;
27367;SDS011;14839;48.106;11.618;2023-08-06T05:28:04;2.03;;;1.30;;
27367;SDS011;14839;48.106;11.618;2023-08-06T05:30:30;2.00;;;1.50;;
27367;SDS011;14839;48.106;11.618;2023-08-06T05:32:56;2.27;;;1.30;;
27367;SDS011;14839;48.106;11.618;2023-08-06T05:35:22;1.13;;;1.03;;
27367;SDS011;14839;48.106;11.618;2023-08-06T05:37:48;5.20;;;1.40;;
27367;SDS011;14839;48.106;11.618;2023-08-06T05:40:15;4.70;;;1.40;;
27367;SDS011;14839;48.106;11.618;2023-08-06T05:42:40;3.43;;;1.30;;
27367;SDS011;14839;48.106;11.618;2023-08-06T05:45:06;1.40;;;1.10;;
27367;SDS011;14839;48.106;11.618;2023-08-06T05:47:32;2.80;;;1.57;;
27367;SDS011;14839;48.106;11.618;2023-08-06T05:49:58;3.97;;;1.30;;
27367;SDS011;14839;48.106;11.618;2023-08-06T05:52:24;3.60;;;1.17;;
27367;SDS011;14839;48.106;11.618;2023-08-06T05:54:49;1.30;;;1.20;;
27367;SDS011;14839;48.106;11.618;2023-08-06T05:57:15;2.23;;;1.50;;
27367;SDS011;14839;48.106;11.618;2023-08-06T05:59:41;1.97;;;1.20;;
27367;SDS011;14839;48.106;11.618;2023-08-06T06:02:07;1.30;;;0.97;;
27367;SDS011;14839;48.106;11.618;2023-08-06T06:04:33;2.07;;;1.27;;
27367;SDS011;14839;48.106;11.618;2023-08-06T06:06:58;3.37;;;1.30;;
27367;SDS011;14839;48.106;11.618;2023-08-06T06:09:24;1.50;;;1.20;;
27367;SDS011;14839;48.106;11.618;2023-08-06T06:11:49;1.77;;;1.13;;
27367;SDS011;14839;48.106;11.618;2023-08-06T06:14:16;2.30;;;1.20;;
27367;SDS011;14839;48.106;11.618;2023-08-06T06:16:42;1.33;;;1.10;;
27367;SDS011;14839;48.106;11.618;2023-08-06T06:19:07;1.90;;;1.20;;
27367;SDS011;14839;48.106;11.618;2023-08-06T06:21:33;1.40;;;1.00;;
27367;SDS011;14839;48.106;11.618;2023-08-06T06:23:59;1.23;;;0.87;;
27367;SDS011;14839;48.106;11.618;2023-08-06T06:26:24;1.23;;;0.90;;
27367;SDS011;14839;48.106;11.618;2023-08-06T06:28:50;1.23;;;0.93;;
27367;SDS011;14839;48.106;11.618;2023-08-06T06:31:15;1.77;;;1.00;;
27367;SDS011;14839;48.106;11.618;2023-08-06T06:33:41;1.50;;;1.03;;
27367;SDS011;14839;48.106;11.618;2023-08-06T06:36:06;1.87;;;0.90;;
27367;SDS011;14839;48.106;11.618;2023-08-06T06:38:32;2.03;;;1.00;;
27367;SDS011;14839;48.106;11.618;2023-08-06T06:40:59;3.93;;;1.13;;
27367;SDS011;14839;48.106;11.618;2023-08-06T06:43:25;1.50;;;1.03;;
27367;SDS011;14839;48.106;11.618;2023-08-06T06:45:57;1.63;;;1.03;;
27367;SDS011;14839;48.106;11.618;2023-08-06T06:48:25;2.10;;;0.70;;
27367;SDS011;14839;48.106;11.618;2023-08-06T06:50:52;1.07;;;0.80;;
27367;SDS011;14839;48.106;11.618;2023-08-06T06:53:18;1.80;;;1.03;;
27367;SDS011;14839;48.106;11.618;2023-08-06T06:55:43;0.93;;;0.60;;
27367;SDS011;14839;48.106;11.618;2023-08-06T06:58:09;2.07;;;0.83;;
27367;SDS011;14839;48.106;11.618;2023-08-06T07:00:35;1.33;;;0.80;;
27367;SDS011;14839;48.106;11.618;2023-08-06T07:03:02;0.70;;;0.70;;
27367;SDS011;14839;48.106;11.618;2023-08-06T07:05:28;1.20;;;0.90;;
27367;SDS011;14839;48.106;11.618;2023-08-06T07:07:53;0.80;;;0.67;;
27367;SDS011;14839;48.106;11.618;2023-08-06T07:10:19;1.40;;;0.90;;
27367;SDS011;14839;48.106;11.618;2023-08-06T07:12:44;2.27;;;1.20;;
27367;SDS011;14839;48.106;11.618;2023-08-06T07:15:10;0.60;;;0.60;;
27367;SDS011;14839;48.106;11.618;2023-08-06T07:17:36;0.80;;;0.70;;
27367;SDS011;14839;48.106;11.618;2023-08-06T07:20:01;0.83;;;0.53;;
27367;SDS011;14839;48.106;11.618;2023-08-06T07:22:27;1.97;;;0.60;;
27367;SDS011;14839;48.106;11.618;2023-08-06T07:24:53;2.27;;;0.60;;
27367;SDS011;14839;48.106;11.618;2023-08-06T07:27:19;0.57;;;0.43;;
27367;SDS011;14839;48.106;11.618;2023-08-06T07:29:44;3.13;;;0.80;;
27367;SDS011;14839;48.106;11.618;2023-08-06T07:32:10;0.63;;;0.47;;
27367;SDS011;14839;48.106;11.618;2023-08-06T07:34:35;0.60;;;0.40;;
27367;SDS011;14839;48.106;11.618;2023-08-06T07:37:01;0.77;;;0.50;;
27367;SDS011;14839;48.106;11.618;2023-08-06T07:39:26;1.07;;;0.50;;
27367;SDS011;14839;48.106;11.618;2023-08-06T07:41:53;0.50;;;0.40;;
27367;SDS011;14839;48.106;11.618;2023-08-06T07:44:19;3.53;;;0.40;;
27367;SDS011;14839;48.106;11.618;2023-08-06T07:46:44;1.27;;;0.60;;
27367;SDS011;14839;48.106;11.618;2023-08-06T07:49:10;0.63;;;0.33;;
27367;SDS011;14839;48.106;11.618;2023-08-06T07:51:38;3.23;;;0.60;;
27367;SDS011;14839;48.106;11.618;2023-08-06T07:54:04;1.30;;;0.73;;
27367;SDS011;14839;48.106;11.618;2023-08-06T07:56:30;0.40;;;0.40;;
27367;SDS011;14839;48.106;11.618;2023-08-06T07:58:56;0.80;;;0.60;;
27367;SDS011;14839;48.106;11.618;2023-08-06T08:01:21;0.53;;;0.50;;
27367;SDS011;14839;48.106;11.618;2023-08-06T08:03:47;1.93;;;0.83;;
27367;SDS011;14839;48.106;11.618;2023-08-06T08:06:13;0.77;;;0.50;;
27367;SDS011;14839;48.106;11.618;2023-08-06T08:08:38;0.97;;;0.53;;
27367;SDS011;14839;48.106;11.618;2023-08-06T08:11:05;1.23;;;0.50;;
27367;SDS011;14839;48.106;11.618;2023-08-06T08:13:30;1.50;;;0.60;;
27367;SDS011;14839;48.106;11.618;2023-08-06T08:15:57;0.50;;;0.40;;
27367;SDS011;14839;48.106;11.618;2023-08-06T08:18:23;0.80;;;0.50;;
27367;SDS011;14839;48.106;11.618;2023-08-06T08:20:49;1.73;;;0.60;;
27367;SDS011;14839;48.106;11.618;2023-08-06T08:23:14;0.67;;;0.50;;
27367;SDS011;14839;48.106;11.618;2023-08-06T08:25:40;0.70;;;0.40;;
27367;SDS011;14839;48.106;11.618;2023-08-06T08:28:06;4.10;;;0.60;;
27367;SDS011;14839;48.106;11.618;2023-08-06T08:30:32;0.80;;;0.60;;
27367;SDS011;14839;48.106;11.618;2023-08-06T08:32:58;2.10;;;0.60;;
27367;SDS011;14839;48.106;11.618;2023-08-06T08:35:23;1.17;;;0.70;;
27367;SDS011;14839;48.106;11.618;2023-08-06T08:37:49;0.63;;;0.40;;
27367;SDS011;14839;48.106;11.618;2023-08-06T08:40:15;1.90;;;0.50;;
27367;SDS011;14839;48.106;11.618;2023-08-06T08:42:41;0.27;;;0.27;;
27367;SDS011;14839;48.106;11.618;2023-08-06T08:45:11;0.97;;;0.30;;
27367;SDS011;14839;48.106;11.618;2023-08-06T08:47:41;2.40;;;0.47;;
27367;SDS011;14839;48.106;11.618;2023-08-06T08:50:11;0.97;;;0.47;;
27367;SDS011;14839;48.106;11.618;2023-08-06T08:52:38;3.30;;;0.50;;
27367;SDS011;14839;48.106;11.618;2023-08-06T08:55:05;1.40;;;0.40;;
27367;SDS011;14839;48.106;11.618;2023-08-06T08:57:33;1.67;;;0.40;;
27367;SDS011;14839;48.106;11.618;2023-08-06T08:59:58;0.33;;;0.30;;
27367;SDS011;14839;48.106;11.618;2023-08-06T09:02:24;3.07;;;0.30;;
27367;SDS011;14839;48.106;11.618;2023-08-06T09:04:52;2.50;;;0.33;;
27367;SDS011;14839;48.106;11.618;2023-08-06T09:07:19;0.40;;;0.30;;
27367;SDS011;14839;48.106;11.618;2023-08-06T09:09:47;0.30;;;0.30;;
27367;SDS011;14839;48.106;11.618;2023-08-06T09:12:15;1.30;;;0.30;;
27367;SDS011;14839;48.106;11.618;2023-08-06T09:14:41;0.33;;;0.30;;
27367;SDS011;14839;48.106;11.618;2023-08-06T09:17:07;0.40;;;0.30;;
27367;SDS011;14839;48.106;11.618;2023-08-06T09:19:35;0.70;;;0.33;;
27367;SDS011;14839;48.106;11.618;2023-08-06T09:22:01;0.33;;;0.30;;
27367;SDS011;14839;48.106;11.618;2023-08-06T09:24:27;0.30;;;0.30;;
27367;SDS011;14839;48.106;11.618;2023-08-06T09:26:52;1.07;;;0.53;;
27367;SDS011;14839;48.106;11.618;2023-08-06T09:29:19;0.23;;;0.13;;
27367;SDS011;14839;48.106;11.618;2023-08-06T09:31:45;1.80;;;0.20;;
27367;SDS011;14839;48.106;11.618;2023-08-06T09:34:20;0.67;;;0.37;;
27367;SDS011;14839;48.106;11.618;2023-08-06T09:36:48;0.63;;;0.30;;
27367;SDS011;14839;48.106;11.618;2023-08-06T09:39:19;0.37;;;0.20;;
27367;SDS011;14839;48.106;11.618;2023-08-06T09:41:46;0.20;;;0.20;;
27367;SDS011;14839;48.106;11.618;2023-08-06T09:44:21;0.73;;;0.20;;
27367;SDS011;14839;48.106;11.618;2023-08-06T09:46:49;1.80;;;0.50;;
27367;SDS011;14839;48.106;11.618;2023-08-06T09:49:16;0.20;;;0.20;;
27367;SDS011;14839;48.106;11.618;2023-08-06T09:51:42;0.30;;;0.20;;
27367;SDS011;14839;48.106;11.618;2023-08-06T09:54:09;1.53;;;0.20;;
27367;SDS011;14839;48.106;11.618;2023-08-06T09:56:40;1.80;;;0.20;;
27367;SDS011;14839;48.106;11.618;2023-08-06T09:59:07;0.30;;;0.30;;
27367;SDS011;14839;48.106;11.618;2023-08-06T10:01:34;3.43;;;0.40;;
27367;SDS011;14839;48.106;11.618;2023-08-06T10:04:03;0.20;;;0.10;;
27367;SDS011;14839;48.106;11.618;2023-08-06T10:06:35;0.20;;;0.10;;
27367;SDS011;14839;48.106;11.618;2023-08-06T10:09:02;0.20;;;0.20;;
27367;SDS011;14839;48.106;11.618;2023-08-06T10:11:28;0.43;;;0.20;;
27367;SDS011;14839;48.106;11.618;2023-08-06T10:14:06;1.50;;;0.20;;
27367;SDS011;14839;48.106;11.618;2023-08-06T10:16:36;0.20;;;0.20;;
27367;SDS011;14839;48.106;11.618;2023-08-06T10:19:05;0.20;;;0.10;;
27367;SDS011;14839;48.106;11.618;2023-08-06T10:21:39;0.30;;;0.20;;
27367;SDS011;14839;48.106;11.618;2023-08-06T10:24:08;0.40;;;0.20;;
27367;SDS011;14839;48.106;11.618;2023-08-06T10:26:37;0.57;;;0.30;;
27367;SDS011;14839;48.106;11.618;2023-08-06T10:29:34;0.30;;;0.20;;
27367;SDS011;14839;48.106;11.618;2023-08-06T10:32:01;0.30;;;0.30;;
27367;SDS011;14839;48.106;11.618;2023-08-06T10:37:35;0.20;;;0.10;;
27367;SDS011;14839;48.106;11.618;2023-08-06T10:40:02;0.40;;;0.30;;
27367;SDS011;14839;48.106;11.618;2023-08-06T10:42:29;0.20;;;0.20;;
27367;SDS011;14839;48.106;11.618;2023-08-06T10:47:40;0.23;;;0.10;;
27367;SDS011;14839;48.106;11.618;2023-08-06T10:50:16;0.50;;;0.17;;
27367;SDS011;14839;48.106;11.618;2023-08-06T10:52:45;0.20;;;0.13;;
27367;SDS011;14839;48.106;11.618;2023-08-06T10:55:12;0.20;;;0.17;;
27367;SDS011;14839;48.106;11.618;2023-08-06T10:57:38;0.27;;;0.23;;
27367;SDS011;14839;48.106;11.618;2023-08-06T11:00:04;0.30;;;0.20;;
27367;SDS011;14839;48.106;11.618;2023-08-06T11:02:35;0.23;;;0.20;;
27367;SDS011;14839;48.106;11.618;2023-08-06T11:05:07;0.20;;;0.10;;
27367;SDS011;14839;48.106;11.618;2023-08-06T11:07:34;0.43;;;0.30;;
27367;SDS011;14839;48.106;11.618;2023-08-06T11:10:03;0.20;;;0.10;;
27367;SDS011;14839;48.106;11.618;2023-08-06T11:12:33;0.50;;;0.20;;
27367;SDS011;14839;48.106;11.618;2023-08-06T11:14:59;0.63;;;0.27;;
27367;SDS011;14839;48.106;11.618;2023-08-06T11:17:27;0.30;;;0.17;;
27367;SDS011;14839;48.106;11.618;2023-08-06T11:19:53;1.63;;;0.30;;
27367;SDS011;14839;48.106;11.618;2023-08-06T11:22:20;0.93;;;0.20;;
27367;SDS011;14839;48.106;11.618;2023-08-06T11:24:46;0.33;;;0.20;;
27367;SDS011;14839;48.106;11.618;2023-08-06T11:27:12;0.67;;;0.20;;
27367;SDS011;14839;48.106;11.618;2023-08-06T11:29:39;0.40;;;0.30;;
27367;SDS011;14839;48.106;11.618;2023-08-06T11:32:06;0.47;;;0.20;;
27367;SDS011;14839;48.106;11.618;2023-08-06T11:34:32;1.80;;;0.40;;
27367;SDS011;14839;48.106;11.618;2023-08-06T11:36:58;0.50;;;0.40;;
27367;SDS011;14839;48.106;11.618;2023-08-06T11:39:23;0.20;;;0.17;;
27367;SDS011;14839;48.106;11.618;2023-08-06T11:41:49;0.30;;;0.27;;
27367;SDS011;14839;48.106;11.618;2023-08-06T11:44:15;0.53;;;0.30;;
27367;SDS011;14839;48.106;11.618;2023-08-06T11:46:53;0.20;;;0.10;;
27367;SDS011;14839;48.106;11.618;2023-08-06T11:49:36;1.07;;;0.20;;
27367;SDS011;14839;48.106;11.618;2023-08-06T11:52:07;0.43;;;0.20;;
27367;SDS011;14839;48.106;11.618;2023-08-06T11:54:36;1.37;;;0.30;;
27367;SDS011;14839;48.106;11.618;2023-08-06T11:57:07;0.20;;;0.20;;
27367;SDS011;14839;48.106;11.618;2023-08-06T11:59:34;0.77;;;0.37;;
27367;SDS011;14839;48.106;11.618;2023-08-06T12:02:01;0.20;;;0.20;;
27367;SDS011;14839;48.106;11.618;2023-08-06T12:04:27;0.20;;;0.10;;
27367;SDS011;14839;48.106;11.618;2023-08-06T12:06:53;0.20;;;0.20;;
27367;SDS011;14839;48.106;11.618;2023-08-06T12:09:18;0.33;;;0.20;;
27367;SDS011;14839;48.106;11.618;2023-08-06T12:11:44;0.27;;;0.20;;
27367;SDS011;14839;48.106;11.618;2023-08-06T12:14:09;0.53;;;0.20;;
27367;SDS011;14839;48.106;11.618;2023-08-06T12:16:35;0.20;;;0.20;;
27367;SDS011;14839;48.106;11.618;2023-08-06T12:19:01;0.20;;;0.10;;
27367;SDS011;14839;48.106;11.618;2023-08-06T12:21:26;0.20;;;0.10;;
27367;SDS011;14839;48.106;11.618;2023-08-06T12:23:52;1.50;;;0.30;;
27367;SDS011;14839;48.106;11.618;2023-08-06T12:26:17;0.40;;;0.30;;
27367;SDS011;14839;48.106;11.618;2023-08-06T12:28:43;0.33;;;0.27;;
27367;SDS011;14839;48.106;11.618;2023-08-06T12:31:08;0.40;;;0.30;;
27367;SDS011;14839;48.106;11.618;2023-08-06T12:33:34;0.20;;;0.20;;
27367;SDS011;14839;48.106;11.618;2023-08-06T12:35:59;0.23;;;0.20;;
27367;SDS011;14839;48.106;11.618;2023-08-06T12:38:25;0.20;;;0.13;;
27367;SDS011;14839;48.106;11.618;2023-08-06T12:40:51;0.93;;;0.20;;
27367;SDS011;14839;48.106;11.618;2023-08-06T12:43:16;0.37;;;0.30;;
27367;SDS011;14839;48.106;11.618;2023-08-06T12:45:42;0.23;;;0.20;;
27367;SDS011;14839;48.106;11.618;2023-08-06T12:48:08;0.23;;;0.17;;
27367;SDS011;14839;48.106;11.618;2023-08-06T12:50:33;0.20;;;0.20;;
27367;SDS011;14839;48.106;11.618;2023-08-06T12:52:59;0.20;;;0.20;;
27367;SDS011;14839;48.106;11.618;2023-08-06T12:55:25;0.40;;;0.20;;
27367;SDS011;14839;48.106;11.618;2023-08-06T12:57:51;2.10;;;0.20;;
27367;SDS011;14839;48.106;11.618;2023-08-06T13:00:16;0.20;;;0.10;;
27367;SDS011;14839;48.106;11.618;2023-08-06T13:02:42;1.33;;;0.30;;
27367;SDS011;14839;48.106;11.618;2023-08-06T13:05:08;0.20;;;0.20;;
27367;SDS011;14839;48.106;11.618;2023-08-06T13:07:34;0.40;;;0.30;;
27367;SDS011;14839;48.106;11.618;2023-08-06T13:10:00;0.97;;;0.30;;
27367;SDS011;14839;48.106;11.618;2023-08-06T13:12:25;0.63;;;0.30;;
27367;SDS011;14839;48.106;11.618;2023-08-06T13:14:51;0.20;;;0.20;;
27367;SDS011;14839;48.106;11.618;2023-08-06T13:17:18;0.60;;;0.30;;
27367;SDS011;14839;48.106;11.618;2023-08-06T13:19:43;0.30;;;0.20;;
27367;SDS011;14839;48.106;11.618;2023-08-06T13:22:09;0.30;;;0.20;;
27367;SDS011;14839;48.106;11.618;2023-08-06T13:24:36;2.43;;;0.20;;
27367;SDS011;14839;48.106;11.618;2023-08-06T13:27:01;1.40;;;0.20;;
27367;SDS011;14839;48.106;11.618;2023-08-06T13:29:28;1.90;;;0.20;;
27367;SDS011;14839;48.106;11.618;2023-08-06T13:31:53;0.30;;;0.20;;
27367;SDS011;14839;48.106;11.618;2023-08-06T13:34:19;0.23;;;0.20;;
27367;SDS011;14839;48.106;11.618;2023-08-06T13:36:45;0.40;;;0.23;;
27367;SDS011;14839;48.106;11.618;2023-08-06T13:39:10;5.30;;;0.30;;
27367;SDS011;14839;48.106;11.618;2023-08-06T13:41:37;0.40;;;0.20;;
27367;SDS011;14839;48.106;11.618;2023-08-06T13:44:04;0.33;;;0.20;;
27367;SDS011;14839;48.106;11.618;2023-08-06T13:46:30;0.27;;;0.20;;
27367;SDS011;14839;48.106;11.618;2023-08-06T13:48:55;1.63;;;0.30;;
27367;SDS011;14839;48.106;11.618;2023-08-06T13:51:21;0.20;;;0.20;;
27367;SDS011;14839;48.106;11.618;2023-08-06T13:53:46;0.40;;;0.20;;
27367;SDS011;14839;48.106;11.618;2023-08-06T13:56:12;1.33;;;0.30;;
27367;SDS011;14839;48.106;11.618;2023-08-06T13:58:40;0.20;;;0.20;;
27367;SDS011;14839;48.106;11.618;2023-08-06T14:01:05;0.67;;;0.20;;
27367;SDS011;14839;48.106;11.618;2023-08-06T14:03:31;0.20;;;0.13;;
27367;SDS011;14839;48.106;11.618;2023-08-06T14:05:57;2.17;;;0.40;;
27367;SDS011;14839;48.106;11.618;2023-08-06T14:08:23;0.30;;;0.30;;
27367;SDS011;14839;48.106;11.618;2023-08-06T14:10:50;0.97;;;0.20;;
27367;SDS011;14839;48.106;11.618;2023-08-06T14:13:16;0.20;;;0.20;;
27367;SDS011;14839;48.106;11.618;2023-08-06T14:15:41;0.60;;;0.37;;
27367;SDS011;14839;48.106;11.618;2023-08-06T14:18:11;0.83;;;0.40;;
27367;SDS011;14839;48.106;11.618;2023-08-06T14:20:37;3.63;;;0.40;;
27367;SDS011;14839;48.106;11.618;2023-08-06T14:23:03;0.20;;;0.20;;
27367;SDS011;14839;48.106;11.618;2023-08-06T14:25:28;0.57;;;0.43;;
27367;SDS011;14839;48.106;11.618;2023-08-06T14:27:54;0.30;;;0.30;;
27367;SDS011;14839;48.106;11.618;2023-08-06T14:30:20;0.53;;;0.40;;
27367;SDS011;14839;48.106;11.618;2023-08-06T14:32:45;0.20;;;0.20;;
27367;SDS011;14839;48.106;11.618;2023-08-06T14:35:11;0.30;;;0.30;;
27367;SDS011;14839;48.106;11.618;2023-08-06T14:37:36;1.30;;;0.53;;
27367;SDS011;14839;48.106;11.618;2023-08-06T14:40:02;0.47;;;0.30;;
27367;SDS011;14839;48.106;11.618;2023-08-06T14:42:28;0.97;;;0.23;;
27367;SDS011;14839;48.106;11.618;2023-08-06T14:44:54;0.50;;;0.40;;
27367;SDS011;14839;48.106;11.618;2023-08-06T14:47:19;0.97;;;0.40;;
27367;SDS011;14839;48.106;11.618;2023-08-06T14:49:45;0.37;;;0.30;;
27367;SDS011;14839;48.106;11.618;2023-08-06T14:52:11;0.40;;;0.20;;
27367;SDS011;14839;48.106;11.618;2023-08-06T14:54:36;0.20;;;0.20;;
27367;SDS011;14839;48.106;11.618;2023-08-06T14:57:02;0.40;;;0.30;;
27367;SDS011;14839;48.106;11.618;2023-08-06T14:59:28;0.50;;;0.50;;
27367;SDS011;14839;48.106;11.618;2023-08-06T15:01:53;0.20;;;0.20;;
27367;SDS011;14839;48.106;11.618;2023-08-06T15:04:19;0.47;;;0.30;;
27367;SDS011;14839;48.106;11.618;2023-08-06T15:06:44;0.40;;;0.30;;
27367;SDS011;14839;48.106;11.618;2023-08-06T15:09:10;0.30;;;0.30;;
27367;SDS011;14839;48.106;11.618;2023-08-06T15:11:36;0.20;;;0.20;;
27367;SDS011;14839;48.106;11.618;2023-08-06T15:14:02;0.30;;;0.30;;
27367;SDS011;14839;48.106;11.618;2023-08-06T15:16:30;0.93;;;0.23;;
27367;SDS011;14839;48.106;11.618;2023-08-06T15:18:55;1.13;;;0.30;;
27367;SDS011;14839;48.106;11.618;2023-08-06T15:21:21;0.50;;;0.30;;
27367;SDS011;14839;48.106;11.618;2023-08-06T15:23:46;0.33;;;0.20;;
27367;SDS011;14839;48.106;11.618;2023-08-06T15:26:12;0.43;;;0.30;;
27367;SDS011;14839;48.106;11.618;2023-08-06T15:28:37;0.20;;;0.20;;
27367;SDS011;14839;48.106;11.618;2023-08-06T15:31:03;0.20;;;0.20;;
27367;SDS011;14839;48.106;11.618;2023-08-06T15:33:30;0.40;;;0.40;;
27367;SDS011;14839;48.106;11.618;2023-08-06T15:35:56;0.37;;;0.30;;
27367;SDS011;14839;48.106;11.618;2023-08-06T15:38:22;0.40;;;0.20;;
27367;SDS011;14839;48.106;11.618;2023-08-06T15:40:48;0.30;;;0.23;;
27367;SDS011;14839;48.106;11.618;2023-08-06T15:43:13;0.47;;;0.20;;
27367;SDS011;14839;48.106;11.618;2023-08-06T15:45:39;0.47;;;0.20;;
27367;SDS011;14839;48.106;11.618;2023-08-06T15:48:04;0.37;;;0.30;;
27367;SDS011;14839;48.106;11.618;2023-08-06T15:50:30;1.10;;;0.30;;
27367;SDS011;14839;48.106;11.618;2023-08-06T15:52:55;1.00;;;0.47;;
27367;SDS011;14839;48.106;11.618;2023-08-06T15:55:21;0.40;;;0.27;;
27367;SDS011;14839;48.106;11.618;2023-08-06T15:57:46;1.03;;;0.30;;
27367;SDS011;14839;48.106;11.618;2023-08-06T16:00:12;0.20;;;0.20;;
27367;SDS011;14839;48.106;11.618;2023-08-06T16:02:38;0.53;;;0.40;;
27367;SDS011;14839;48.106;11.618;2023-08-06T16:05:03;0.23;;;0.23;;
27367;SDS011;14839;48.106;11.618;2023-08-06T16:07:29;0.33;;;0.30;;
27367;SDS011;14839;48.106;11.618;2023-08-06T16:09:55;0.70;;;0.40;;
27367;SDS011;14839;48.106;11.618;2023-08-06T16:12:20;0.40;;;0.30;;
27367;SDS011;14839;48.106;11.618;2023-08-06T16:14:46;3.03;;;0.20;;
27367;SDS011;14839;48.106;11.618;2023-08-06T16:17:12;0.30;;;0.23;;
27367;SDS011;14839;48.106;11.618;2023-08-06T16:19:38;0.40;;;0.30;;
27367;SDS011;14839;48.106;11.618;2023-08-06T16:22:05;0.20;;;0.20;;
27367;SDS011;14839;48.106;11.618;2023-08-06T16:24:31;0.73;;;0.20;;
27367;SDS011;14839;48.106;11.618;2023-08-06T16:26:56;1.33;;;0.30;;
27367;SDS011;14839;48.106;11.618;2023-08-06T16:29:22;0.67;;;0.30;;
27367;SDS011;14839;48.106;11.618;2023-08-06T16:31:48;0.80;;;0.30;;
27367;SDS011;14839;48.106;11.618;2023-08-06T16:34:13;0.40;;;0.40;;
27367;SDS011;14839;48.106;11.618;2023-08-06T16:36:39;1.00;;;0.37;;
27367;SDS011;14839;48.106;11.618;2023-08-06T16:39:04;0.70;;;0.63;;
27367;SDS011;14839;48.106;11.618;2023-08-06T16:41:30;0.30;;;0.27;;
27367;SDS011;14839;48.106;11.618;2023-08-06T16:43:55;0.73;;;0.37;;
27367;SDS011;14839;48.106;11.618;2023-08-06T16:46:21;0.70;;;0.30;;
27367;SDS011;14839;48.106;11.618;2023-08-06T16:48:47;1.33;;;0.87;;
27367;SDS011;14839;48.106;11.618;2023-08-06T16:51:13;0.47;;;0.30;;
27367;SDS011;14839;48.106;11.618;2023-08-06T16:53:41;0.37;;;0.30;;
27367;SDS011;14839;48.106;11.618;2023-08-06T16:56:12;0.40;;;0.30;;
27367;SDS011;14839;48.106;11.618;2023-08-06T16:58:38;0.47;;;0.30;;
27367;SDS011;14839;48.106;11.618;2023-08-06T17:01:04;0.40;;;0.30;;
27367;SDS011;14839;48.106;11.618;2023-08-06T17:03:30;0.53;;;0.30;;
27367;SDS011;14839;48.106;11.618;2023-08-06T17:05:56;0.50;;;0.33;;
27367;SDS011;14839;48.106;11.618;2023-08-06T17:08:23;0.37;;;0.37;;
27367;SDS011;14839;48.106;11.618;2023-08-06T17:10:49;1.83;;;0.40;;
27367;SDS011;14839;48.106;11.618;2023-08-06T17:13:14;0.50;;;0.40;;
27367;SDS011;14839;48.106;11.618;2023-08-06T17:15:41;0.73;;;0.40;;
27367;SDS011;14839;48.106;11.618;2023-08-06T17:18:07;0.53;;;0.30;;
27367;SDS011;14839;48.106;11.618;2023-08-06T17:20:34;1.70;;;0.50;;
27367;SDS011;14839;48.106;11.618;2023-08-06T17:23:00;0.90;;;0.50;;
27367;SDS011;14839;48.106;11.618;2023-08-06T17:25:26;0.30;;;0.30;;
27367;SDS011;14839;48.106;11.618;2023-08-06T17:27:51;0.20;;;0.20;;
27367;SDS011;14839;48.106;11.618;2023-08-06T17:30:17;0.40;;;0.30;;
27367;SDS011;14839;48.106;11.618;2023-08-06T17:32:44;0.90;;;0.40;;
27367;SDS011;14839;48.106;11.618;2023-08-06T17:35:09;0.50;;;0.40;;
27367;SDS011;14839;48.106;11.618;2023-08-06T17:37:35;0.97;;;0.40;;
27367;SDS011;14839;48.106;11.618;2023-08-06T17:40:00;1.07;;;0.30;;
27367;SDS011;14839;48.106;11.618;2023-08-06T17:42:26;0.70;;;0.30;;
27367;SDS011;14839;48.106;11.618;2023-08-06T17:44:51;0.83;;;0.47;;
27367;SDS011;14839;48.106;11.618;2023-08-06T17:47:17;0.67;;;0.43;;
27367;SDS011;14839;48.106;11.618;2023-08-06T17:49:42;0.30;;;0.27;;
27367;SDS011;14839;48.106;11.618;2023-08-06T17:52:08;0.63;;;0.40;;
27367;SDS011;14839;48.106;11.618;2023-08-06T17:54:34;0.53;;;0.40;;
27367;SDS011;14839;48.106;11.618;2023-08-06T17:56:59;1.13;;;0.40;;
27367;SDS011;14839;48.106;11.618;2023-08-06T17:59:25;0.30;;;0.30;;
27367;SDS011;14839;48.106;11.618;2023-08-06T18:01:51;1.90;;;0.57;;
27367;SDS011;14839;48.106;11.618;2023-08-06T18:04:16;2.47;;;0.30;;
27367;SDS011;14839;48.106;11.618;2023-08-06T18:06:42;1.03;;;0.50;;
27367;SDS011;14839;48.106;11.618;2023-08-06T18:09:07;0.23;;;0.23;;
27367;SDS011;14839;48.106;11.618;2023-08-06T18:11:33;0.40;;;0.30;;
27367;SDS011;14839;48.106;11.618;2023-08-06T18:13:58;0.30;;;0.27;;
27367;SDS011;14839;48.106;11.618;2023-08-06T18:16:24;0.23;;;0.23;;
27367;SDS011;14839;48.106;11.618;2023-08-06T18:18:49;0.50;;;0.40;;
27367;SDS011;14839;48.106;11.618;2023-08-06T18:21:17;0.43;;;0.43;;
27367;SDS011;14839;48.106;11.618;2023-08-06T18:23:44;0.40;;;0.20;;
27367;SDS011;14839;48.106;11.618;2023-08-06T18:26:10;0.50;;;0.47;;
27367;SDS011;14839;48.106;11.618;2023-08-06T18:28:35;1.13;;;0.40;;
27367;SDS011;14839;48.106;11.618;2023-08-06T18:31:01;0.77;;;0.60;;
27367;SDS011;14839;48.106;11.618;2023-08-06T18:33:26;0.40;;;0.40;;
27367;SDS011;14839;48.106;11.618;2023-08-06T18:35:52;2.73;;;0.40;;